Time;durP1;ratioP1;P1;durP2;ratioP2;P2;SDS_P1;SDS_P2;PMS_P1;PMS_P2;Temp;Humidity;BMP_temperature;BMP_pressure;BME280_temperature;BME280_humidity;BME280_pressure;Samples;Min_cycle;Max_cycle;Signal;HPM_P1;HPM_P2
2021/04/21 00:01:32;;;;;;;30.77;22.77;;;;;;;5.99;100.00;101033.03;5045639;28;20041;-76
2021/04/21 00:04:00;;;;;;;32.85;21.80;;;;;;;5.78;100.00;101036.16;5042341;28;20057;-75
2021/04/21 00:06:27;;;;;;;29.73;20.90;;;;;;;5.65;100.00;101037.50;5042136;28;20049;-77
2021/04/21 00:08:54;;;;;;;32.47;21.80;;;;;;;5.68;100.00;101044.25;5043028;28;20135;-76
2021/04/21 00:11:20;;;;;;;33.08;22.33;;;;;;;5.68;100.00;101039.81;5044929;28;20056;-76
2021/04/21 00:13:47;;;;;;;29.50;21.48;;;;;;;5.57;100.00;101040.16;5043712;28;20848;-76
2021/04/21 00:16:15;;;;;;;33.30;21.65;;;;;;;5.37;100.00;101038.84;5044137;28;20401;-76
2021/04/21 00:18:45;;;;;;;31.65;22.08;;;;;;;5.36;100.00;101040.66;5042300;28;20049;-76
2021/04/21 00:21:13;;;;;;;41.60;26.50;;;;;;;5.61;100.00;101040.66;5040359;28;20497;-76
2021/04/21 00:23:40;;;;;;;34.20;23.42;;;;;;;5.61;100.00;101043.28;5044328;28;20073;-75
2021/04/21 00:26:11;;;;;;;38.58;26.20;;;;;;;5.59;100.00;101038.16;5043501;28;20493;-76
2021/04/21 00:28:39;;;;;;;52.55;31.73;;;;;;;5.68;100.00;101045.06;5042793;28;20485;-75
2021/04/21 00:31:08;;;;;;;33.70;21.85;;;;;;;5.73;100.00;101041.97;5050364;28;20088;-76
2021/04/21 00:33:37;;;;;;;35.05;24.33;;;;;;;6.06;100.00;101044.59;5043749;28;20076;-76
2021/04/21 00:36:06;;;;;;;31.50;25.05;;;;;;;6.51;100.00;101036.03;5043940;28;20456;-75
2021/04/21 00:38:34;;;;;;;26.98;21.83;;;;;;;6.54;100.00;101040.16;5044178;28;20041;-76
2021/04/21 00:41:07;;;;;;;28.13;23.67;;;;;;;6.57;100.00;101037.16;5045777;28;20056;-77
2021/04/21 00:43:42;;;;;;;33.00;23.63;;;;;;;6.56;100.00;101032.88;5041912;28;20053;-76
2021/04/21 00:46:13;;;;;;;27.40;22.48;;;;;;;6.60;100.00;101034.19;5032117;28;20555;-75
2021/04/21 00:48:49;;;;;;;25.23;22.50;;;;;;;6.53;100.00;101031.38;5042132;28;20045;-75
2021/04/21 00:51:24;;;;;;;26.27;23.33;;;;;;;6.54;100.00;101030.41;5042239;28;20057;-75
2021/04/21 00:54:00;;;;;;;25.63;22.95;;;;;;;6.68;100.00;101028.03;5039603;28;20060;-75
2021/04/21 00:56:33;;;;;;;25.65;22.90;;;;;;;6.56;100.00;101028.41;5047948;28;20052;-76
2021/04/21 00:59:06;;;;;;;26.92;22.50;;;;;;;6.46;100.00;101024.34;5047510;28;20478;-76
2021/04/21 01:01:34;;;;;;;23.90;21.27;;;;;;;6.41;100.00;101023.06;5036982;28;20053;-76
2021/04/21 01:04:03;;;;;;;25.90;23.15;;;;;;;6.52;100.00;101023.66;5049344;28;20052;-75
2021/04/21 01:06:32;;;;;;;27.10;22.88;;;;;;;6.47;100.00;101024.16;5045286;28;20050;-75
2021/04/21 01:09:02;;;;;;;29.92;25.85;;;;;;;6.39;100.00;101025.03;5046850;28;20045;-76
2021/04/21 01:11:33;;;;;;;30.05;24.55;;;;;;;6.16;100.00;101022.28;5050305;28;20041;-75
2021/04/21 01:14:02;;;;;;;26.30;22.33;;;;;;;6.25;100.00;101024.91;5047883;28;20474;-75
2021/04/21 01:16:31;;;;;;;28.15;22.17;;;;;;;6.06;100.00;101019.03;5038044;28;20053;-76
2021/04/21 01:19:07;;;;;;;33.05;25.75;;;;;;;6.21;100.00;101021.78;5037232;28;20386;-75
2021/04/21 01:21:39;;;;;;;27.42;24.55;;;;;;;6.37;100.00;101020.91;5044507;28;20057;-76
2021/04/21 01:24:20;;;;;;;28.10;23.35;;;;;;;6.00;100.00;101024.97;5047260;28;20061;-75
2021/04/21 01:26:58;;;;;;;44.17;31.55;;;;;;;5.71;100.00;101021.03;5050119;28;20049;-76
2021/04/21 01:29:29;;;;;;;32.10;24.98;;;;;;;5.44;100.00;101035.38;5045914;28;20473;-75
2021/04/21 01:32:03;;;;;;;33.28;23.17;;;;;;;5.28;100.00;101033.56;5040457;28;20053;-75
2021/04/21 01:34:32;;;;;;;37.17;24.20;;;;;;;5.08;100.00;101032.19;5042540;28;20518;-77
2021/04/21 01:37:01;;;;;;;36.33;25.42;;;;;;;5.01;100.00;101034.66;5046419;28;20053;-77
2021/04/21 01:39:29;;;;;;;36.53;25.48;;;;;;;4.86;100.00;101040.72;5045404;28;20073;-75
2021/04/21 01:41:59;;;;;;;47.42;31.13;;;;;;;4.76;100.00;101033.78;5044344;28;20138;-75
2021/04/21 01:44:29;;;;;;;36.67;24.98;;;;;;;4.68;100.00;101035.56;5044265;28;20258;-76
2021/04/21 01:47:03;;;;;;;38.03;24.98;;;;;;;4.62;100.00;101044.09;5053146;28;20501;-75
2021/04/21 01:49:56;;;;;;;39.78;28.73;;;;;;;4.11;100.00;101038.75;5042209;28;20045;-75
2021/04/21 01:52:52;;;;;;;46.40;30.60;;;;;;;4.15;100.00;101045.38;5037610;28;20049;-76
2021/04/21 01:55:33;;;;;;;44.30;29.70;;;;;;;4.17;100.00;101039.94;5044293;28;20050;-75
2021/04/21 01:58:10;;;;;;;48.83;30.98;;;;;;;4.26;100.00;101037.19;5044188;28;20041;-75
2021/04/21 02:01:11;;;;;;;44.92;28.98;;;;;;;4.24;100.00;101044.44;5048450;28;20515;-75
2021/04/21 02:03:41;;;;;;;45.42;28.83;;;;;;;4.11;100.00;101041.38;5044879;28;20053;-75
2021/04/21 02:06:39;;;;;;;44.78;27.20;;;;;;;4.20;100.00;101048.34;5041801;28;20122;-76
2021/04/21 02:09:16;;;;;;;39.45;26.13;;;;;;;4.18;100.00;101044.25;5044295;28;20162;-75
2021/04/21 02:11:52;;;;;;;37.75;27.00;;;;;;;4.04;100.00;101048.25;5044293;28;20045;-75
2021/04/21 02:14:25;;;;;;;46.63;30.38;;;;;;;4.07;100.00;101058.47;5044538;28;20052;-76
2021/04/21 02:17:02;;;;;;;;;;;;;;;4.06;100.00;101055.00;5042386;28;20121;-75
2021/04/21 02:19:44;;;;;;;51.83;33.40;;;;;;;4.06;100.00;101051.56;5046159;28;19986;-76
2021/04/21 02:22:26;;;;;;;46.22;30.00;;;;;;;3.98;100.00;101056.75;5042059;28;20396;-76
2021/04/21 02:25:01;;;;;;;51.25;34.95;;;;;;;3.99;100.00;101058.41;5043868;28;20166;-75
2021/04/21 02:27:37;;;;;;;52.63;35.97;;;;;;;4.01;100.00;101059.06;5048511;28;20072;-75
2021/04/21 02:30:09;;;;;;;53.53;34.42;;;;;;;4.09;100.00;101059.97;5042389;28;20052;-75
2021/04/21 02:32:43;;;;;;;;;;;;;;;4.01;100.00;101066.97;5042247;28;20056;-76
2021/04/21 02:35:16;;;;;;;40.92;26.52;;;;;;;3.95;100.00;101057.06;5043444;28;19931;-76
2021/04/21 02:37:54;;;;;;;40.33;26.23;;;;;;;3.93;100.00;101057.22;5043792;28;20045;-76
2021/04/21 02:40:39;;;;;;;40.67;27.10;;;;;;;3.84;100.00;101063.38;5044664;28;20160;-76
2021/04/21 02:43:15;;;;;;;40.55;26.38;;;;;;;3.65;100.00;101061.78;5044074;28;20136;-76
2021/04/21 02:45:50;;;;;;;42.15;26.95;;;;;;;3.47;100.00;101064.41;5052072;28;20053;-75
2021/04/21 02:48:30;;;;;;;55.28;34.22;;;;;;;3.61;100.00;101065.69;5046970;28;20474;-77
2021/04/21 02:51:05;;;;;;;46.08;27.25;;;;;;;3.44;100.00;101073.41;5047949;28;20489;-75
2021/04/21 02:53:40;;;;;;;42.38;25.90;;;;;;;3.38;100.00;101074.00;5035428;28;20060;-75
2021/04/21 02:56:16;;;;;;;40.90;23.65;;;;;;;3.39;100.00;101085.38;5037344;28;20053;-75
2021/04/21 02:58:51;;;;;;;41.92;25.58;;;;;;;3.34;100.00;101077.94;5043297;28;20056;-76
2021/04/21 03:01:27;;;;;;;41.15;23.67;;;;;;;3.34;100.00;101087.59;5043251;28;20048;-76
2021/04/21 03:03:59;;;;;;;47.72;26.23;;;;;;;3.21;100.00;101085.34;5047877;28;20049;-76
2021/04/21 03:06:28;;;;;;;;;;;;;;;3.08;100.00;101083.06;5044754;28;20536;-76
2021/04/21 03:09:00;;;;;;;51.50;27.02;;;;;;;3.15;100.00;101088.56;5043982;28;20344;-75
2021/04/21 03:11:29;;;;;;;46.38;27.30;;;;;;;3.25;100.00;101088.50;5041488;28;20115;-76
2021/04/21 03:13:59;;;;;;;53.17;30.48;;;;;;;3.26;100.00;101087.53;5051344;28;20044;-76
2021/04/21 03:16:28;;;;;;;45.75;27.25;;;;;;;3.02;100.00;101094.16;5051560;28;20052;-75
2021/04/21 03:19:00;;;;;;;47.78;28.00;;;;;;;3.09;100.00;101087.38;5042870;28;20080;-76
2021/04/21 03:21:28;;;;;;;50.60;27.60;;;;;;;3.09;100.00;101091.78;5042557;28;20488;-75
2021/04/21 03:23:59;;;;;;;44.83;27.90;;;;;;;2.93;100.00;101092.41;5045427;28;20045;-75
2021/04/21 03:26:28;;;;;;;44.15;26.05;;;;;;;2.98;100.00;101093.63;5045721;28;20072;-76
2021/04/21 03:28:58;;;;;;;46.65;28.08;;;;;;;2.93;100.00;101089.78;5044293;28;20060;-76
2021/04/21 03:31:29;;;;;;;46.83;29.25;;;;;;;2.96;100.00;101098.19;5035056;28;20044;-75
2021/04/21 03:34:01;;;;;;;52.00;31.40;;;;;;;3.04;100.00;101097.47;5042729;28;20409;-76
2021/04/21 03:36:29;;;;;;;57.88;31.23;;;;;;;3.04;100.00;101091.41;5037285;28;20049;-76
2021/04/21 03:38:56;;;;;;;50.33;31.17;;;;;;;3.20;100.00;101104.69;5043084;28;20486;-76
2021/04/21 03:41:23;;;;;;;49.50;29.65;;;;;;;3.11;100.00;101105.56;5044504;28;20048;-76
2021/04/21 03:43:51;;;;;;;48.38;27.70;;;;;;;2.83;100.00;101115.25;5038009;28;20107;-75
2021/04/21 03:46:18;;;;;;;60.47;33.95;;;;;;;3.30;100.00;101113.34;5033520;28;20339;-76
2021/04/21 03:48:45;;;;;;;53.55;31.65;;;;;;;3.40;100.00;101123.78;5042586;28;20064;-75
2021/04/21 03:51:13;;;;;;;48.22;29.88;;;;;;;3.57;100.00;101125.59;5044418;28;20081;-75
2021/04/21 03:53:41;;;;;;;51.25;30.25;;;;;;;3.54;100.00;101131.13;5045715;28;20144;-75
2021/04/21 03:56:12;;;;;;;56.58;33.70;;;;;;;3.69;100.00;101134.03;5046862;28;20059;-75
2021/04/21 03:58:40;;;;;;;38.13;26.92;;;;;;;4.50;100.00;101131.19;5042941;28;20080;-77
2021/04/21 04:01:11;;;;;;;41.67;28.40;;;;;;;3.92;100.00;101139.66;5047181;28;20052;-76
2021/04/21 04:03:39;;;;;;;39.22;26.55;;;;;;;4.26;100.00;101137.13;5046881;28;20053;-75
2021/04/21 04:06:12;;;;;;;34.50;25.20;;;;;;;4.18;100.00;101136.25;5047551;28;20060;-75
2021/04/21 04:08:44;;;;;;;41.00;28.05;;;;;;;4.23;100.00;101133.97;5045100;28;20435;-75
2021/04/21 04:11:14;;;;;;;38.55;27.45;;;;;;;4.67;100.00;101133.91;5044304;28;20067;-75
2021/04/21 04:13:44;;;;;;;38.20;27.58;;;;;;;4.66;100.00;101132.25;5042899;28;20049;-76
2021/04/21 04:16:12;;;;;;;42.92;29.48;;;;;;;4.67;100.00;101133.91;5040813;28;20474;-76
2021/04/21 04:18:40;;;;;;;37.72;27.13;;;;;;;4.85;100.00;101142.56;5043031;28;20136;-75
2021/04/21 04:21:09;;;;;;;37.30;27.80;;;;;;;5.04;100.00;101139.66;5040321;28;20076;-75
2021/04/21 04:23:38;;;;;;;39.45;26.63;;;;;;;4.99;100.00;101146.38;5044469;28;20045;-76
2021/04/21 04:26:07;;;;;;;42.72;25.05;;;;;;;4.87;100.00;101148.50;5041307;28;20045;-76
2021/04/21 04:28:35;;;;;;;49.92;32.17;;;;;;;4.90;100.00;101152.59;5040896;28;20045;-76
2021/04/21 04:31:03;;;;;;;45.90;29.60;;;;;;;4.91;100.00;101151.63;5038962;28;20067;-75
2021/04/21 04:33:30;;;;;;;51.40;31.63;;;;;;;4.98;100.00;101158.72;5042971;28;20060;-76
2021/04/21 04:35:57;;;;;;;51.75;31.75;;;;;;;5.04;100.00;101160.72;5045506;28;20111;-76
2021/04/21 04:38:24;;;;;;;55.28;35.40;;;;;;;5.33;100.00;101164.78;5045725;28;20068;-75
2021/04/21 04:40:52;;;;;;;55.38;36.42;;;;;;;5.63;100.00;101168.63;5034978;28;20053;-76
2021/04/21 04:43:21;;;;;;;52.00;32.95;;;;;;;5.80;100.00;101169.47;5032268;28;20084;-76
2021/04/21 04:45:56;;;;;;;50.60;33.45;;;;;;;5.95;100.00;101169.66;5047753;28;20084;-76
2021/04/21 04:48:30;;;;;;;46.10;30.73;;;;;;;6.16;100.00;101177.91;5044038;28;20494;-76
2021/04/21 04:51:01;;;;;;;44.50;30.40;;;;;;;6.37;100.00;101176.56;5043503;28;20132;-75
2021/04/21 04:53:29;;;;;;;37.60;27.48;;;;;;;6.38;100.00;101175.56;5046277;28;20052;-76
2021/04/21 04:55:57;;;;;;;37.65;26.33;;;;;;;6.55;100.00;101179.03;5041943;28;20162;-77
2021/04/21 04:58:27;;;;;;;37.15;26.75;;;;;;;6.68;100.00;101170.56;5040607;28;20053;-75
2021/04/21 05:00:58;;;;;;;39.92;29.10;;;;;;;6.79;100.00;101170.22;5053227;28;20056;-76
2021/04/21 05:03:26;;;;;;;36.35;26.55;;;;;;;6.95;100.00;101171.97;5043513;28;20441;-75
2021/04/21 05:05:54;;;;;;;40.10;29.95;;;;;;;7.15;100.00;101175.84;5045009;28;20049;-76
2021/04/21 05:08:23;;;;;;;46.50;32.25;;;;;;;7.35;100.00;101176.25;5046149;28;20115;-75
2021/04/21 05:10:55;;;;;;;30.63;27.50;;;;;;;8.89;100.00;101175.13;5048522;28;20076;-75
2021/04/21 05:13:22;;;;;;;32.65;29.15;;;;;;;8.89;100.00;101169.84;5041192;28;20045;-75
2021/04/21 05:16:24;;;;;;;32.40;29.10;;;;;;;8.29;100.00;101173.41;5046201;28;20053;-77
2021/04/21 05:19:34;;;;;;;32.75;28.90;;;;;;;8.17;100.00;101167.72;5036179;28;20049;-77
2021/04/21 05:22:25;;;;;;;33.60;30.00;;;;;;;8.24;100.00;101171.31;5003033;28;20493;-79
2021/04/21 05:25:25;;;;;;;33.88;30.25;;;;;;;8.37;100.00;101166.22;5038962;28;20125;-78
2021/04/21 05:28:31;;;;;;;34.17;28.98;;;;;;;9.64;100.00;101172.16;5029156;28;20060;-79
2021/04/21 05:31:35;;;;;;;32.15;27.23;;;;;;;8.54;100.00;101166.13;5040105;28;20049;-77
2021/04/21 05:34:43;;;;;;;31.50;26.80;;;;;;;8.59;100.00;101163.72;5039504;28;20061;-76
2021/04/21 05:37:45;;;;;;;31.92;27.42;;;;;;;8.45;100.00;101168.84;5039513;28;20378;-77
2021/04/21 05:40:45;;;;;;;37.03;29.60;;;;;;;9.44;100.00;101173.78;5031623;28;20456;-77
2021/04/21 05:44:02;;;;;;;37.70;33.75;;;;;;;9.70;100.00;101172.41;5040447;28;20398;-77
2021/04/21 05:47:02;;;;;;;34.05;30.60;;;;;;;9.03;100.00;101171.66;5041047;28;20049;-77
2021/04/21 05:50:01;;;;;;;38.20;34.30;;;;;;;9.03;100.00;101174.31;5039060;28;20045;-76
2021/04/21 05:52:58;;;;;;;36.80;31.55;;;;;;;8.98;100.00;101176.69;5036264;28;20045;-77
2021/04/21 05:55:59;;;;;;;38.88;34.67;;;;;;;8.73;100.00;101180.63;5048992;28;20037;-77
2021/04/21 05:59:01;;;;;;;37.45;30.52;;;;;;;9.19;100.00;101183.88;5051369;28;20044;-77
2021/04/21 06:01:29;;;;;;;41.20;36.85;;;;;;;10.00;100.00;101192.50;5038702;28;20063;-77
2021/04/21 06:03:57;;;;;;;37.08;32.22;;;;;;;9.27;100.00;101175.84;5047214;28;20045;-76
2021/04/21 06:06:25;;;;;;;39.75;35.50;;;;;;;9.90;100.00;101189.34;5051022;28;20051;-77
2021/04/21 06:08:52;;;;;;;34.85;30.27;;;;;;;9.14;100.00;101179.16;5050698;28;20490;-77
2021/04/21 06:11:20;;;;;;;35.58;31.67;;;;;;;9.45;100.00;101180.72;5047809;28;20473;-76
2021/04/21 06:13:51;;;;;;;36.95;31.95;;;;;;;9.57;100.00;101175.75;5050725;28;20048;-76
2021/04/21 06:16:18;;;;;;;34.92;30.60;;;;;;;9.41;100.00;101184.78;5042011;28;20493;-76
2021/04/21 06:18:50;;;;;;;42.53;38.28;;;;;;;9.59;100.00;101185.19;5048736;28;20095;-76
2021/04/21 06:21:18;;;;;;;39.80;33.43;;;;;;;8.91;100.00;101187.19;5051823;28;20081;-77
2021/04/21 06:23:44;;;;;;;40.35;33.45;;;;;;;9.11;100.00;101194.59;5048362;28;20478;-78
2021/04/21 06:26:17;;;;;;;37.05;30.65;;;;;;;9.28;100.00;101189.91;5046387;28;20075;-76
2021/04/21 06:28:44;;;;;;;37.78;29.75;;;;;;;9.38;100.00;101201.88;5047456;28;20421;-77
2021/04/21 06:31:13;;;;;;;35.70;31.75;;;;;;;9.42;100.00;101204.16;5045822;28;20111;-77
2021/04/21 06:33:42;;;;;;;38.00;33.03;;;;;;;9.42;100.00;101206.81;5048395;28;20044;-77
2021/04/21 06:36:13;;;;;;;36.38;32.45;;;;;;;9.54;100.00;101205.31;5052857;28;20493;-80
2021/04/21 06:38:42;;;;;;;34.20;30.50;;;;;;;9.64;100.00;101211.13;5050693;28;20500;-76
2021/04/21 06:41:08;;;;;;;35.35;31.65;;;;;;;9.91;100.00;101212.22;5040625;28;20060;-76
2021/04/21 06:43:38;;;;;;;33.53;29.90;;;;;;;10.09;100.00;101217.09;5047137;28;20049;-76
2021/04/21 06:46:10;;;;;;;34.58;30.85;;;;;;;10.86;100.00;101216.28;5049095;28;20052;-76
2021/04/21 06:48:38;;;;;;;34.22;30.85;;;;;;;10.59;100.00;101219.75;5037830;28;20049;-76
2021/04/21 06:51:09;;;;;;;34.63;31.13;;;;;;;10.70;100.00;101217.38;5041725;28;20106;-77
2021/04/21 06:53:35;;;;;;;37.80;34.00;;;;;;;10.40;100.00;101219.41;5046754;28;20045;-77
2021/04/21 06:56:02;;;;;;;36.38;32.63;;;;;;;10.06;100.00;101225.44;5050302;28;20094;-77
2021/04/21 06:58:31;;;;;;;35.80;32.20;;;;;;;10.55;100.00;101232.59;5045444;28;20059;-77
2021/04/21 07:01:08;;;;;;;35.95;32.25;;;;;;;10.00;100.00;101234.16;5046965;28;20053;-77
2021/04/21 07:03:34;;;;;;;34.88;31.17;;;;;;;10.44;100.00;101228.66;5038365;28;20068;-75
2021/04/21 07:06:01;;;;;;;35.97;32.38;;;;;;;11.05;100.00;101237.84;5039194;28;20053;-77
2021/04/21 07:08:32;;;;;;;34.58;31.02;;;;;;;10.81;100.00;101234.63;5040865;28;20048;-77
2021/04/21 07:10:59;;;;;;;38.05;34.55;;;;;;;10.94;100.00;101232.03;5017447;28;20049;-77
2021/04/21 07:13:28;;;;;;;36.85;33.33;;;;;;;10.98;100.00;101246.59;5038232;28;20060;-77
2021/04/21 07:15:56;;;;;;;39.60;35.75;;;;;;;10.70;100.00;101240.47;5035176;28;20458;-76
2021/04/21 07:18:28;;;;;;;40.35;36.65;;;;;;;11.10;100.00;101246.03;5044705;28;20087;-77
2021/04/21 07:20:55;;;;;;;37.60;33.72;;;;;;;11.30;100.00;101241.66;5041267;28;20053;-77
2021/04/21 07:23:26;;;;;;;39.70;35.90;;;;;;;11.34;100.00;101237.56;5041896;28;20045;-79
2021/04/21 07:25:54;;;;;;;42.15;38.60;;;;;;;11.74;100.00;101242.19;5041657;28;20498;-77
2021/04/21 07:28:23;;;;;;;36.35;32.60;;;;;;;11.67;100.00;101240.34;5045264;28;20110;-78
2021/04/21 07:30:51;;;;;;;36.35;32.65;;;;;;;11.50;100.00;101240.91;5041525;28;20053;-78
2021/04/21 07:33:37;;;;;;;39.22;35.33;;;;;;;11.48;100.00;101254.41;5041490;28;20087;-79
2021/04/21 07:36:08;;;;;;;39.00;35.20;;;;;;;11.12;100.00;101249.31;5041226;28;20145;-78
2021/04/21 07:38:42;;;;;;;36.28;32.58;;;;;;;11.23;100.00;101259.41;5036115;28;20099;-79
2021/04/21 07:41:12;;;;;;;36.58;32.83;;;;;;;11.74;100.00;101258.16;5045781;28;20072;-75
2021/04/21 07:43:41;;;;;;;36.80;33.00;;;;;;;11.86;100.00;101265.44;5039390;28;20077;-76
2021/04/21 07:46:13;;;;;;;38.63;34.85;;;;;;;11.51;100.00;101254.00;5047072;28;20088;-77
2021/04/21 07:48:46;;;;;;;39.17;35.40;;;;;;;11.70;100.00;101263.06;5043143;28;20056;-78
2021/04/21 07:51:43;;;;;;;37.90;34.17;;;;;;;12.12;100.00;101254.00;5046624;28;20046;-76
2021/04/21 07:54:22;;;;;;;37.78;34.35;;;;;;;11.97;100.00;101264.00;5035849;28;20061;-76
2021/04/21 07:57:00;;;;;;;40.45;36.65;;;;;;;11.90;100.00;101261.31;5041564;28;20053;-76
2021/04/21 07:59:29;;;;;;;37.78;34.03;;;;;;;12.13;100.00;101265.44;5040060;28;20053;-76
2021/04/21 08:02:02;;;;;;;36.28;32.60;;;;;;;12.11;100.00;101263.00;5044003;28;20048;-78
2021/04/21 08:04:30;;;;;;;37.03;33.22;;;;;;;12.24;100.00;101264.84;5042663;28;20056;-76
2021/04/21 08:06:58;;;;;;;39.50;35.38;;;;;;;12.14;100.00;101270.59;5042029;28;20053;-76
2021/04/21 08:09:26;;;;;;;39.00;35.15;;;;;;;12.19;100.00;101274.47;5041570;28;20048;-76
2021/04/21 08:12:13;;;;;;;40.17;36.33;;;;;;;12.30;100.00;101268.56;5031819;28;20056;-77
2021/04/21 08:14:42;;;;;;;38.50;34.63;;;;;;;12.48;100.00;101265.28;5038883;28;20045;-77
2021/04/21 08:17:09;;;;;;;38.05;34.55;;;;;;;12.62;100.00;101264.28;5040902;28;20053;-78
2021/04/21 08:19:38;;;;;;;39.60;35.75;;;;;;;12.73;100.00;101258.28;5042298;28;20110;-77
2021/04/21 08:22:05;;;;;;;37.47;33.75;;;;;;;12.53;100.00;101265.50;5040690;28;20053;-77
2021/04/21 08:24:39;;;;;;;40.78;36.97;;;;;;;13.04;100.00;101270.13;5039225;28;20521;-78
2021/04/21 08:27:07;;;;;;;40.60;36.42;;;;;;;12.95;100.00;101263.38;5045464;28;20061;-77
2021/04/21 08:29:34;;;;;;;41.72;38.03;;;;;;;13.38;100.00;101260.25;5036882;28;20060;-77
2021/04/21 08:32:01;;;;;;;40.47;36.55;;;;;;;13.01;100.00;101268.72;5041469;28;20658;-77
2021/04/21 08:34:27;;;;;;;37.47;34.20;;;;;;;12.72;100.00;101267.31;5040122;28;20052;-77
2021/04/21 08:36:54;;;;;;;41.00;37.00;;;;;;;13.27;100.00;101261.69;5042408;28;20048;-77
2021/04/21 08:39:21;;;;;;;37.83;33.67;;;;;;;12.93;100.00;101262.78;5037417;28;20061;-77
2021/04/21 08:41:51;;;;;;;38.35;34.67;;;;;;;13.06;100.00;101263.56;5035670;28;20140;-77
2021/04/21 08:44:19;;;;;;;39.90;36.30;;;;;;;13.43;100.00;101260.41;5039567;28;20045;-76
2021/04/21 08:46:47;;;;;;;37.10;33.40;;;;;;;13.09;100.00;101265.00;5041977;28;20041;-77
2021/04/21 08:49:14;;;;;;;39.83;36.15;;;;;;;13.46;100.00;101266.16;5041492;28;20052;-75
2021/04/21 08:51:42;;;;;;;38.38;34.90;;;;;;;13.62;100.00;101264.84;5044832;28;20053;-75
2021/04/21 08:54:12;;;;;;;39.80;35.97;;;;;;;13.82;100.00;101261.25;5039387;28;20122;-76
2021/04/21 08:56:41;;;;;;;39.40;36.00;;;;;;;14.10;100.00;101253.69;5042826;28;20064;-76
2021/04/21 08:59:09;;;;;;;39.67;35.78;;;;;;;13.41;100.00;101262.50;5040748;28;20060;-76
2021/04/21 09:01:36;;;;;;;39.92;36.15;;;;;;;13.74;100.00;101259.66;5045947;28;20056;-76
2021/04/21 09:04:03;;;;;;;39.17;35.35;;;;;;;13.78;100.00;101252.88;5037838;28;21000;-76
2021/04/21 09:06:31;;;;;;;38.08;34.72;;;;;;;13.93;100.00;101260.59;5036961;28;20048;-75
2021/04/21 09:08:58;;;;;;;38.42;35.03;;;;;;;13.33;100.00;101258.19;5041930;28;20403;-75
2021/04/21 09:11:26;;;;;;;40.10;36.22;;;;;;;14.08;100.00;101255.75;5044603;28;20456;-76
2021/04/21 09:13:52;;;;;;;38.42;34.90;;;;;;;14.28;100.00;101262.81;5041169;28;20052;-76
2021/04/21 09:16:19;;;;;;;38.22;34.75;;;;;;;14.56;100.00;101265.09;5047059;28;20053;-76
2021/04/21 09:18:46;;;;;;;35.53;32.65;;;;;;;14.02;100.00;101259.28;5039582;28;20440;-75
2021/04/21 09:21:26;;;;;;;37.33;33.95;;;;;;;14.03;100.00;101260.91;5042460;28;20757;-75
2021/04/21 09:23:55;;;;;;;38.15;34.90;;;;;;;13.65;100.00;101258.28;5043795;28;20158;-75
2021/04/21 09:26:22;;;;;;;37.85;34.53;;;;;;;13.23;100.00;101265.81;5043127;28;20152;-76
2021/04/21 09:28:53;;;;;;;39.08;35.60;;;;;;;13.77;100.00;101255.72;5044095;28;20049;-76
2021/04/21 09:31:21;;;;;;;39.42;36.10;;;;;;;13.82;100.00;101246.06;5053032;28;20145;-78
2021/04/21 09:33:49;;;;;;;36.53;33.60;;;;;;;14.59;100.00;101246.75;5045871;28;20049;-77
2021/04/21 09:36:32;;;;;;;39.10;35.88;;;;;;;13.98;100.00;101250.91;5046513;28;20090;-77
2021/04/21 09:39:14;;;;;;;40.15;36.97;;;;;;;14.49;100.00;101258.94;5047177;28;20060;-77
2021/04/21 09:41:44;;;;;;;38.92;35.58;;;;;;;14.24;100.00;101254.41;5049805;28;20049;-79
2021/04/21 09:44:19;;;;;;;38.35;35.05;;;;;;;14.87;100.00;101265.00;5044616;28;20053;-78
2021/04/21 09:46:47;;;;;;;37.65;34.40;;;;;;;15.85;100.00;101249.84;5047123;28;20045;-79
2021/04/21 09:49:33;;;;;;;37.92;34.63;;;;;;;15.54;100.00;101248.19;5044924;28;20114;-76
2021/04/21 09:52:02;;;;;;;38.35;35.15;;;;;;;14.70;100.00;101247.06;5038261;28;20045;-76
2021/04/21 09:54:30;;;;;;;37.72;34.72;;;;;;;15.49;100.00;101248.88;5041908;28;20060;-76
2021/04/21 09:57:11;;;;;;;40.15;36.95;;;;;;;15.33;100.00;101233.41;5043831;28;20056;-78
2021/04/21 09:59:40;;;;;;;40.53;37.53;;;;;;;14.24;100.00;101237.56;5038439;28;20045;-79
2021/04/21 10:02:34;;;;;;;37.97;34.88;;;;;;;15.23;100.00;101246.53;5049247;28;20041;-78
2021/04/21 10:05:23;;;;;;;39.70;36.60;;;;;;;15.29;100.00;101240.28;5045136;28;20103;-76
2021/04/21 10:08:10;;;;;;;36.85;33.75;;;;;;;16.22;100.00;101231.78;5043960;28;20147;-77
2021/04/21 10:10:38;;;;;;;37.42;34.80;;;;;;;15.57;100.00;101231.69;5039453;28;20135;-75
2021/04/21 10:13:17;;;;;;;39.53;36.40;;;;;;;15.14;100.00;101242.50;5045262;28;20059;-75
2021/04/21 10:15:44;;;;;;;37.47;34.40;;;;;;;14.88;100.00;101231.84;5045207;28;20053;-76
2021/04/21 10:18:13;;;;;;;38.20;35.25;;;;;;;15.92;100.00;101237.19;5043876;28;20447;-76
2021/04/21 10:20:40;;;;;;;36.25;33.45;;;;;;;14.70;100.00;101234.50;5043195;28;20539;-75
2021/04/21 10:23:07;;;;;;;39.97;37.05;;;;;;;14.16;100.00;101230.63;5039089;28;20045;-77
2021/04/21 10:25:35;;;;;;;40.72;37.92;;;;;;;14.28;100.00;101233.41;5045925;28;20056;-77
2021/04/21 10:28:01;;;;;;;36.88;34.20;;;;;;;15.56;100.00;101222.84;5043981;28;20469;-76
2021/04/21 10:30:28;;;;;;;35.95;33.35;;;;;;;16.26;100.00;101216.88;5037602;28;20126;-76
2021/04/21 10:32:55;;;;;;;33.90;31.50;;;;;;;15.60;100.00;101219.69;5038735;28;20425;-77
2021/04/21 10:35:22;;;;;;;34.58;31.83;;;;;;;15.96;100.00;101216.94;5041782;28;20053;-77
2021/04/21 10:37:49;;;;;;;36.17;33.67;;;;;;;15.55;100.00;101220.38;5042772;28;20089;-77
2021/04/21 10:40:25;;;;;;;36.28;33.58;;;;;;;15.84;100.00;101226.81;5043265;28;20151;-77
2021/04/21 10:42:54;;;;;;;32.38;30.20;;;;;;;16.44;100.00;101218.63;5042816;28;20057;-77
2021/04/21 10:45:24;;;;;;;33.47;31.38;;;;;;;15.50;100.00;101213.03;5047844;28;20084;-77
2021/04/21 10:47:53;;;;;;;36.67;34.08;;;;;;;15.21;100.00;101216.50;5046653;28;20060;-77
2021/04/21 10:50:36;;;;;;;36.28;33.83;;;;;;;15.44;100.00;101197.88;5040013;28;20541;-78
2021/04/21 10:53:04;;;;;;;36.28;33.83;;;;;;;16.30;100.00;101197.66;5040415;28;20048;-78
2021/04/21 10:55:40;;;;;;;35.72;33.40;;;;;;;15.69;100.00;101196.94;5043673;28;20065;-76
2021/04/21 10:58:11;;;;;;;37.33;34.67;;;;;;;15.75;100.00;101196.03;5043519;28;20083;-76
2021/04/21 11:00:39;;;;;;;36.90;34.38;;;;;;;15.34;100.00;101190.38;5040460;28;20147;-76
2021/04/21 11:03:10;;;;;;;34.60;32.38;;;;;;;16.53;100.00;101194.97;5038036;28;20049;-79
2021/04/21 11:05:52;;;;;;;34.90;32.67;;;;;;;16.42;100.00;101190.44;5042015;28;20053;-77
2021/04/21 11:08:21;;;;;;;34.17;31.70;;;;;;;16.04;100.00;101183.66;5037345;28;20119;-78
2021/04/21 11:10:52;;;;;;;34.47;32.33;;;;;;;16.09;100.00;101189.13;5041417;28;20096;-77
2021/04/21 11:13:39;;;;;;;34.70;32.40;;;;;;;16.90;100.00;101192.88;5049245;28;20131;-76
2021/04/21 11:16:08;;;;;;;34.00;31.90;;;;;;;16.35;100.00;101190.53;5050320;28;20115;-76
2021/04/21 11:18:35;;;;;;;37.10;34.53;;;;;;;16.04;100.00;101183.66;5046925;28;20379;-79
2021/04/21 11:21:05;;;;;;;34.00;31.88;;;;;;;16.31;100.00;101178.66;5039893;28;20096;-77
2021/04/21 11:23:55;;;;;;;43.92;40.65;;;;;;;17.04;100.00;101171.16;5042030;28;20119;-83
2021/04/21 11:26:47;;;;;;;36.63;33.92;;;;;;;16.37;100.00;101177.72;5049513;28;20041;-75
2021/04/21 11:29:16;;;;;;;33.53;31.42;;;;;;;16.47;100.00;101169.91;5034816;28;20053;-75
2021/04/21 11:32:11;;;;;;;33.45;31.35;;;;;;;16.07;100.00;101167.13;5049520;28;20067;-76
2021/04/21 11:34:43;;;;;;;35.75;33.15;;;;;;;16.80;100.00;101165.84;5044293;28;20465;-77